sensor_id;sensor_type;location;lat;lon;timestamp;P1;durP1;ratioP1;P2;durP2;ratioP2
10166;SDS011;62970;53.130;8.244;2023-05-18T01:21:35;3.40;;;1.43;;
10166;SDS011;62970;53.130;8.244;2023-05-18T01:24:22;3.40;;;1.47;;
10166;SDS011;62970;53.130;8.244;2023-05-18T01:27:03;4.93;;;1.43;;
10166;SDS011;62970;53.130;8.244;2023-05-18T01:29:36;3.43;;;1.60;;
10166;SDS011;62970;53.130;8.244;2023-05-18T01:32:06;3.50;;;1.40;;
10166;SDS011;62970;53.130;8.244;2023-05-18T01:34:37;5.20;;;1.50;;
10166;SDS011;62970;53.130;8.244;2023-05-18T01:37:07;3.53;;;1.53;;
10166;SDS011;62970;53.130;8.244;2023-05-18T01:39:36;3.27;;;1.60;;
10166;SDS011;62970;53.130;8.244;2023-05-18T01:42:10;3.13;;;1.47;;
10166;SDS011;62970;53.130;8.244;2023-05-18T01:44:46;3.37;;;1.60;;
10166;SDS011;62970;53.130;8.244;2023-05-18T01:47:20;4.20;;;1.60;;
10166;SDS011;62970;53.130;8.244;2023-05-18T01:49:53;2.83;;;1.70;;
10166;SDS011;62970;53.130;8.244;2023-05-18T01:52:28;2.90;;;1.50;;
10166;SDS011;62970;53.130;8.244;2023-05-18T01:55:03;3.53;;;1.67;;
10166;SDS011;62970;53.130;8.244;2023-05-18T01:57:38;4.33;;;1.73;;
10166;SDS011;62970;53.130;8.244;2023-05-18T02:00:11;2.50;;;1.40;;
10166;SDS011;62970;53.130;8.244;2023-05-18T02:02:42;2.93;;;1.30;;
10166;SDS011;62970;53.130;8.244;2023-05-18T02:05:12;5.60;;;1.63;;
10166;SDS011;62970;53.130;8.244;2023-05-18T02:07:41;2.70;;;1.57;;
10166;SDS011;62970;53.130;8.244;2023-05-18T02:10:11;3.43;;;1.40;;
10166;SDS011;62970;53.130;8.244;2023-05-18T02:12:43;6.50;;;1.40;;
10166;SDS011;62970;53.130;8.244;2023-05-18T02:15:16;4.30;;;1.90;;
10166;SDS011;62970;53.130;8.244;2023-05-18T02:17:46;3.13;;;1.57;;
10166;SDS011;62970;53.130;8.244;2023-05-18T02:20:15;3.27;;;1.50;;
10166;SDS011;62970;53.130;8.244;2023-05-18T02:22:45;4.77;;;1.70;;
10166;SDS011;62970;53.130;8.244;2023-05-18T02:25:14;4.10;;;1.60;;
10166;SDS011;62970;53.130;8.244;2023-05-18T02:27:47;3.60;;;1.60;;
10166;SDS011;62970;53.130;8.244;2023-05-18T02:30:17;4.30;;;1.50;;
10166;SDS011;62970;53.130;8.244;2023-05-18T02:32:46;4.93;;;1.77;;
10166;SDS011;62970;53.130;8.244;2023-05-18T02:35:16;4.33;;;1.40;;
10166;SDS011;62970;53.130;8.244;2023-05-18T02:37:45;3.17;;;1.40;;
10166;SDS011;62970;53.130;8.244;2023-05-18T02:40:14;3.93;;;1.60;;
10166;SDS011;62970;53.130;8.244;2023-05-18T02:42:46;4.83;;;1.43;;
10166;SDS011;62970;53.130;8.244;2023-05-18T02:45:16;3.83;;;1.70;;
10166;SDS011;62970;53.130;8.244;2023-05-18T02:47:45;2.93;;;1.50;;
10166;SDS011;62970;53.130;8.244;2023-05-18T02:50:15;5.07;;;1.60;;
10166;SDS011;62970;53.130;8.244;2023-05-18T02:52:44;2.80;;;1.60;;
10166;SDS011;62970;53.130;8.244;2023-05-18T02:55:14;2.57;;;1.40;;
10166;SDS011;62970;53.130;8.244;2023-05-18T02:57:46;5.33;;;1.50;;
10166;SDS011;62970;53.130;8.244;2023-05-18T03:00:21;2.60;;;1.40;;
10166;SDS011;62970;53.130;8.244;2023-05-18T03:02:50;3.47;;;1.57;;
10166;SDS011;62970;53.130;8.244;2023-05-18T03:05:21;2.73;;;1.33;;
10166;SDS011;62970;53.130;8.244;2023-05-18T03:07:51;4.07;;;1.57;;
10166;SDS011;62970;53.130;8.244;2023-05-18T03:10:21;4.07;;;1.67;;
10166;SDS011;62970;53.130;8.244;2023-05-18T03:12:54;3.13;;;1.53;;
10166;SDS011;62970;53.130;8.244;2023-05-18T03:15:23;4.07;;;1.47;;
10166;SDS011;62970;53.130;8.244;2023-05-18T03:17:55;4.87;;;1.63;;
10166;SDS011;62970;53.130;8.244;2023-05-18T03:20:25;4.60;;;1.53;;
10166;SDS011;62970;53.130;8.244;2023-05-18T03:22:55;3.00;;;1.67;;
10166;SDS011;62970;53.130;8.244;2023-05-18T03:25:25;5.03;;;1.70;;
10166;SDS011;62970;53.130;8.244;2023-05-18T03:27:57;3.93;;;1.50;;
10166;SDS011;62970;53.130;8.244;2023-05-18T03:30:26;4.60;;;1.53;;
10166;SDS011;62970;53.130;8.244;2023-05-18T03:32:55;2.73;;;1.53;;
10166;SDS011;62970;53.130;8.244;2023-05-18T03:35:26;3.47;;;1.70;;
10166;SDS011;62970;53.130;8.244;2023-05-18T03:37:55;5.13;;;1.50;;
10166;SDS011;62970;53.130;8.244;2023-05-18T03:40:25;6.27;;;1.90;;
10166;SDS011;62970;53.130;8.244;2023-05-18T03:42:54;5.23;;;2.03;;
10166;SDS011;62970;53.130;8.244;2023-05-18T03:45:26;3.67;;;1.60;;
10166;SDS011;62970;53.130;8.244;2023-05-18T03:47:55;2.83;;;1.70;;
10166;SDS011;62970;53.130;8.244;2023-05-18T03:50:25;2.60;;;1.87;;
10166;SDS011;62970;53.130;8.244;2023-05-18T03:52:56;6.03;;;1.97;;
10166;SDS011;62970;53.130;8.244;2023-05-18T03:55:26;3.33;;;1.80;;
10166;SDS011;62970;53.130;8.244;2023-05-18T03:57:58;4.20;;;1.87;;
10166;SDS011;62970;53.130;8.244;2023-05-18T04:00:27;4.57;;;1.70;;
10166;SDS011;62970;53.130;8.244;2023-05-18T04:02:56;3.13;;;1.67;;
10166;SDS011;62970;53.130;8.244;2023-05-18T04:05:27;5.60;;;2.07;;
10166;SDS011;62970;53.130;8.244;2023-05-18T04:07:56;5.03;;;1.90;;
10166;SDS011;62970;53.130;8.244;2023-05-18T04:10:26;4.57;;;1.60;;
10166;SDS011;62970;53.130;8.244;2023-05-18T04:12:58;3.03;;;1.40;;
10166;SDS011;62970;53.130;8.244;2023-05-18T04:15:27;4.93;;;1.60;;
10166;SDS011;62970;53.130;8.244;2023-05-18T04:17:57;4.80;;;1.60;;
10166;SDS011;62970;53.130;8.244;2023-05-18T04:20:27;2.77;;;1.40;;
10166;SDS011;62970;53.130;8.244;2023-05-18T04:22:56;3.10;;;1.50;;
10166;SDS011;62970;53.130;8.244;2023-05-18T04:25:25;4.50;;;1.93;;
10166;SDS011;62970;53.130;8.244;2023-05-18T04:27:55;4.30;;;1.87;;
10166;SDS011;62970;53.130;8.244;2023-05-18T04:30:28;4.60;;;1.53;;
10166;SDS011;62970;53.130;8.244;2023-05-18T04:33:01;4.60;;;2.00;;
10166;SDS011;62970;53.130;8.244;2023-05-18T04:35:31;2.77;;;1.70;;
10166;SDS011;62970;53.130;8.244;2023-05-18T04:38:02;4.33;;;1.80;;
10166;SDS011;62970;53.130;8.244;2023-05-18T04:40:31;2.30;;;1.57;;
10166;SDS011;62970;53.130;8.244;2023-05-18T04:43:05;3.37;;;1.73;;
10166;SDS011;62970;53.130;8.244;2023-05-18T04:45:35;6.17;;;1.70;;
10166;SDS011;62970;53.130;8.244;2023-05-18T04:48:04;5.30;;;1.80;;
10166;SDS011;62970;53.130;8.244;2023-05-18T04:50:34;4.73;;;1.90;;
10166;SDS011;62970;53.130;8.244;2023-05-18T04:53:04;3.57;;;1.67;;
10166;SDS011;62970;53.130;8.244;2023-05-18T04:55:36;3.40;;;1.73;;
10166;SDS011;62970;53.130;8.244;2023-05-18T04:58:09;3.07;;;1.67;;
10166;SDS011;62970;53.130;8.244;2023-05-18T05:00:39;3.50;;;1.80;;
10166;SDS011;62970;53.130;8.244;2023-05-18T05:03:08;3.40;;;1.53;;
10166;SDS011;62970;53.130;8.244;2023-05-18T05:05:37;4.90;;;1.80;;
10166;SDS011;62970;53.130;8.244;2023-05-18T05:08:07;4.67;;;1.77;;
10166;SDS011;62970;53.130;8.244;2023-05-18T05:10:36;3.17;;;1.50;;
10166;SDS011;62970;53.130;8.244;2023-05-18T05:13:05;4.67;;;1.87;;
10166;SDS011;62970;53.130;8.244;2023-05-18T05:15:37;4.00;;;1.70;;
10166;SDS011;62970;53.130;8.244;2023-05-18T05:18:07;7.23;;;2.00;;
10166;SDS011;62970;53.130;8.244;2023-05-18T05:20:36;3.90;;;1.83;;
10166;SDS011;62970;53.130;8.244;2023-05-18T05:23:06;2.73;;;1.83;;
10166;SDS011;62970;53.130;8.244;2023-05-18T05:25:35;5.83;;;1.97;;
10166;SDS011;62970;53.130;8.244;2023-05-18T05:28:05;5.47;;;2.10;;
10166;SDS011;62970;53.130;8.244;2023-05-18T05:30:36;5.07;;;1.87;;
10166;SDS011;62970;53.130;8.244;2023-05-18T05:33:06;4.47;;;2.00;;
10166;SDS011;62970;53.130;8.244;2023-05-18T05:35:35;4.23;;;1.93;;
10166;SDS011;62970;53.130;8.244;2023-05-18T05:38:04;4.40;;;1.83;;
10166;SDS011;62970;53.130;8.244;2023-05-18T05:40:34;4.13;;;1.70;;
10166;SDS011;62970;53.130;8.244;2023-05-18T05:43:03;2.93;;;1.50;;
10166;SDS011;62970;53.130;8.244;2023-05-18T05:45:33;4.50;;;1.73;;
10166;SDS011;62970;53.130;8.244;2023-05-18T05:48:05;3.17;;;1.60;;
10166;SDS011;62970;53.130;8.244;2023-05-18T05:50:35;4.40;;;1.90;;
10166;SDS011;62970;53.130;8.244;2023-05-18T05:53:04;3.73;;;1.60;;
10166;SDS011;62970;53.130;8.244;2023-05-18T05:55:33;6.83;;;1.77;;
10166;SDS011;62970;53.130;8.244;2023-05-18T05:58:06;3.67;;;1.83;;
10166;SDS011;62970;53.130;8.244;2023-05-18T06:00:37;3.97;;;1.87;;
10166;SDS011;62970;53.130;8.244;2023-05-18T06:03:10;5.20;;;1.90;;
10166;SDS011;62970;53.130;8.244;2023-05-18T06:05:39;3.87;;;1.80;;
10166;SDS011;62970;53.130;8.244;2023-05-18T06:08:08;3.40;;;1.90;;
10166;SDS011;62970;53.130;8.244;2023-05-18T06:10:38;3.67;;;1.67;;
10166;SDS011;62970;53.130;8.244;2023-05-18T06:13:08;3.83;;;1.83;;
10166;SDS011;62970;53.130;8.244;2023-05-18T06:15:37;4.47;;;1.80;;
10166;SDS011;62970;53.130;8.244;2023-05-18T06:18:06;5.20;;;1.83;;
10166;SDS011;62970;53.130;8.244;2023-05-18T06:20:38;2.00;;;1.37;;
10166;SDS011;62970;53.130;8.244;2023-05-18T06:23:08;4.23;;;1.83;;
10166;SDS011;62970;53.130;8.244;2023-05-18T06:25:38;3.83;;;1.80;;
10166;SDS011;62970;53.130;8.244;2023-05-18T06:28:07;3.57;;;1.80;;
10166;SDS011;62970;53.130;8.244;2023-05-18T06:30:37;3.00;;;1.83;;
10166;SDS011;62970;53.130;8.244;2023-05-18T06:33:06;3.00;;;1.83;;
10166;SDS011;62970;53.130;8.244;2023-05-18T06:35:38;5.83;;;1.97;;
10166;SDS011;62970;53.130;8.244;2023-05-18T06:38:08;3.60;;;1.97;;
10166;SDS011;62970;53.130;8.244;2023-05-18T06:40:37;4.70;;;2.20;;
10166;SDS011;62970;53.130;8.244;2023-05-18T06:43:07;4.93;;;2.10;;
10166;SDS011;62970;53.130;8.244;2023-05-18T06:45:38;9.83;;;2.50;;
10166;SDS011;62970;53.130;8.244;2023-05-18T06:48:10;4.30;;;2.13;;
10166;SDS011;62970;53.130;8.244;2023-05-18T06:50:39;5.90;;;2.07;;
10166;SDS011;62970;53.130;8.244;2023-05-18T06:53:09;4.63;;;2.03;;
10166;SDS011;62970;53.130;8.244;2023-05-18T06:55:39;4.73;;;2.27;;
10166;SDS011;62970;53.130;8.244;2023-05-18T06:58:08;6.13;;;2.43;;
10166;SDS011;62970;53.130;8.244;2023-05-18T07:00:37;4.47;;;1.93;;
10166;SDS011;62970;53.130;8.244;2023-05-18T07:03:07;4.10;;;2.33;;
10166;SDS011;62970;53.130;8.244;2023-05-18T07:05:39;2.30;;;2.00;;
10166;SDS011;62970;53.130;8.244;2023-05-18T07:08:08;4.93;;;2.43;;
10166;SDS011;62970;53.130;8.244;2023-05-18T07:10:38;3.00;;;1.87;;
10166;SDS011;62970;53.130;8.244;2023-05-18T07:13:07;3.80;;;1.83;;
10166;SDS011;62970;53.130;8.244;2023-05-18T07:15:37;2.37;;;1.83;;
10166;SDS011;62970;53.130;8.244;2023-05-18T07:18:07;4.77;;;2.10;;
10166;SDS011;62970;53.130;8.244;2023-05-18T07:20:39;2.90;;;1.73;;
10166;SDS011;62970;53.130;8.244;2023-05-18T07:23:08;5.23;;;2.13;;
10166;SDS011;62970;53.130;8.244;2023-05-18T07:25:37;4.50;;;2.00;;
10166;SDS011;62970;53.130;8.244;2023-05-18T07:28:07;4.97;;;2.00;;
10166;SDS011;62970;53.130;8.244;2023-05-18T07:30:36;2.70;;;1.80;;
10166;SDS011;62970;53.130;8.244;2023-05-18T07:33:05;2.40;;;1.80;;
10166;SDS011;62970;53.130;8.244;2023-05-18T07:35:34;4.30;;;2.07;;
10166;SDS011;62970;53.130;8.244;2023-05-18T07:38:07;3.13;;;1.90;;
10166;SDS011;62970;53.130;8.244;2023-05-18T07:40:36;7.30;;;2.03;;
10166;SDS011;62970;53.130;8.244;2023-05-18T07:43:06;4.23;;;2.00;;
10166;SDS011;62970;53.130;8.244;2023-05-18T07:45:35;5.30;;;2.07;;
10166;SDS011;62970;53.130;8.244;2023-05-18T07:48:07;4.80;;;2.20;;
10166;SDS011;62970;53.130;8.244;2023-05-18T07:50:37;2.60;;;1.70;;
10166;SDS011;62970;53.130;8.244;2023-05-18T07:53:09;3.33;;;2.10;;
10166;SDS011;62970;53.130;8.244;2023-05-18T07:55:38;3.57;;;1.80;;
10166;SDS011;62970;53.130;8.244;2023-05-18T07:58:09;4.40;;;2.00;;
10166;SDS011;62970;53.130;8.244;2023-05-18T08:00:38;3.80;;;1.67;;
10166;SDS011;62970;53.130;8.244;2023-05-18T08:03:08;3.40;;;1.73;;
10166;SDS011;62970;53.130;8.244;2023-05-18T08:05:37;3.37;;;1.90;;
10166;SDS011;62970;53.130;8.244;2023-05-18T08:08:09;3.40;;;1.90;;
10166;SDS011;62970;53.130;8.244;2023-05-18T08:10:39;2.40;;;1.73;;
10166;SDS011;62970;53.130;8.244;2023-05-18T08:13:08;2.67;;;1.80;;
10166;SDS011;62970;53.130;8.244;2023-05-18T08:15:38;3.60;;;1.80;;
10166;SDS011;62970;53.130;8.244;2023-05-18T08:18:07;4.20;;;1.63;;
10166;SDS011;62970;53.130;8.244;2023-05-18T08:20:37;4.60;;;1.83;;
10166;SDS011;62970;53.130;8.244;2023-05-18T08:23:06;4.20;;;1.80;;
10166;SDS011;62970;53.130;8.244;2023-05-18T08:25:38;5.27;;;1.83;;
10166;SDS011;62970;53.130;8.244;2023-05-18T08:28:08;2.47;;;1.87;;
10166;SDS011;62970;53.130;8.244;2023-05-18T08:30:37;2.60;;;1.90;;
10166;SDS011;62970;53.130;8.244;2023-05-18T08:33:06;5.00;;;2.70;;
10166;SDS011;62970;53.130;8.244;2023-05-18T08:35:36;9.57;;;2.60;;
10166;SDS011;62970;53.130;8.244;2023-05-18T08:38:05;3.03;;;2.10;;
10166;SDS011;62970;53.130;8.244;2023-05-18T08:40:47;4.10;;;1.93;;
10166;SDS011;62970;53.130;8.244;2023-05-18T08:43:24;3.87;;;1.90;;
10166;SDS011;62970;53.130;8.244;2023-05-18T08:45:58;3.00;;;1.80;;
10166;SDS011;62970;53.130;8.244;2023-05-18T08:48:33;2.30;;;1.57;;
10166;SDS011;62970;53.130;8.244;2023-05-18T08:51:04;2.33;;;1.60;;
10166;SDS011;62970;53.130;8.244;2023-05-18T08:53:36;3.53;;;1.63;;
10166;SDS011;62970;53.130;8.244;2023-05-18T08:56:09;3.77;;;2.00;;
10166;SDS011;62970;53.130;8.244;2023-05-18T08:58:41;4.23;;;1.97;;
10166;SDS011;62970;53.130;8.244;2023-05-18T09:01:15;4.80;;;2.03;;
10166;SDS011;62970;53.130;8.244;2023-05-18T09:03:44;3.80;;;1.57;;
10166;SDS011;62970;53.130;8.244;2023-05-18T09:06:17;3.43;;;1.77;;
10166;SDS011;62970;53.130;8.244;2023-05-18T09:08:48;5.03;;;1.63;;
10166;SDS011;62970;53.130;8.244;2023-05-18T09:11:24;3.70;;;1.70;;
10166;SDS011;62970;53.130;8.244;2023-05-18T09:13:54;2.50;;;1.93;;
10166;SDS011;62970;53.130;8.244;2023-05-18T09:16:24;3.90;;;1.80;;
10166;SDS011;62970;53.130;8.244;2023-05-18T09:18:54;2.80;;;1.53;;
10166;SDS011;62970;53.130;8.244;2023-05-18T09:21:23;4.57;;;1.70;;
10166;SDS011;62970;53.130;8.244;2023-05-18T09:23:53;3.80;;;2.00;;
10166;SDS011;62970;53.130;8.244;2023-05-18T09:26:25;3.33;;;1.70;;
10166;SDS011;62970;53.130;8.244;2023-05-18T09:28:55;4.23;;;1.90;;
10166;SDS011;62970;53.130;8.244;2023-05-18T09:31:24;3.37;;;1.70;;
10166;SDS011;62970;53.130;8.244;2023-05-18T09:33:54;4.67;;;1.70;;
10166;SDS011;62970;53.130;8.244;2023-05-18T09:36:27;2.70;;;1.50;;
10166;SDS011;62970;53.130;8.244;2023-05-18T09:38:58;3.60;;;1.80;;
10166;SDS011;62970;53.130;8.244;2023-05-18T09:41:37;4.73;;;1.70;;
10166;SDS011;62970;53.130;8.244;2023-05-18T09:44:07;2.43;;;1.63;;
10166;SDS011;62970;53.130;8.244;2023-05-18T09:46:37;3.17;;;1.73;;
10166;SDS011;62970;53.130;8.244;2023-05-18T09:49:07;4.37;;;1.60;;
10166;SDS011;62970;53.130;8.244;2023-05-18T09:51:37;2.80;;;1.87;;
10166;SDS011;62970;53.130;8.244;2023-05-18T09:54:06;3.10;;;1.43;;
10166;SDS011;62970;53.130;8.244;2023-05-18T09:56:38;4.70;;;1.67;;
10166;SDS011;62970;53.130;8.244;2023-05-18T09:59:07;2.47;;;1.80;;
10166;SDS011;62970;53.130;8.244;2023-05-18T10:01:41;3.27;;;1.50;;
10166;SDS011;62970;53.130;8.244;2023-05-18T10:04:33;3.20;;;2.00;;
10166;SDS011;62970;53.130;8.244;2023-05-18T10:07:08;3.40;;;1.87;;
10166;SDS011;62970;53.130;8.244;2023-05-18T10:09:39;4.00;;;1.80;;
10166;SDS011;62970;53.130;8.244;2023-05-18T10:12:13;4.90;;;2.03;;
10166;SDS011;62970;53.130;8.244;2023-05-18T10:14:44;3.80;;;1.90;;
10166;SDS011;62970;53.130;8.244;2023-05-18T10:17:14;2.63;;;1.90;;
10166;SDS011;62970;53.130;8.244;2023-05-18T10:19:44;4.70;;;1.93;;
10166;SDS011;62970;53.130;8.244;2023-05-18T10:22:15;3.63;;;1.97;;
10166;SDS011;62970;53.130;8.244;2023-05-18T10:24:49;5.60;;;2.00;;
10166;SDS011;62970;53.130;8.244;2023-05-18T10:27:22;1.77;;;1.57;;
10166;SDS011;62970;53.130;8.244;2023-05-18T10:29:56;8.10;;;2.00;;
10166;SDS011;62970;53.130;8.244;2023-05-18T10:32:27;5.27;;;1.93;;
10166;SDS011;62970;53.130;8.244;2023-05-18T10:34:59;2.97;;;1.70;;
10166;SDS011;62970;53.130;8.244;2023-05-18T10:37:32;9.17;;;2.23;;
10166;SDS011;62970;53.130;8.244;2023-05-18T10:40:03;4.07;;;2.07;;
10166;SDS011;62970;53.130;8.244;2023-05-18T10:42:41;3.20;;;1.90;;
10166;SDS011;62970;53.130;8.244;2023-05-18T10:45:12;3.20;;;1.80;;
10166;SDS011;62970;53.130;8.244;2023-05-18T10:47:42;6.00;;;2.27;;
10166;SDS011;62970;53.130;8.244;2023-05-18T10:50:11;5.43;;;2.67;;
10166;SDS011;62970;53.130;8.244;2023-05-18T10:52:42;4.37;;;2.57;;
10166;SDS011;62970;53.130;8.244;2023-05-18T10:55:13;4.73;;;2.70;;
10166;SDS011;62970;53.130;8.244;2023-05-18T10:57:46;5.17;;;2.67;;
10166;SDS011;62970;53.130;8.244;2023-05-18T11:00:20;5.10;;;2.10;;
10166;SDS011;62970;53.130;8.244;2023-05-18T11:02:49;4.93;;;2.60;;
10166;SDS011;62970;53.130;8.244;2023-05-18T11:05:24;4.00;;;2.60;;
10166;SDS011;62970;53.130;8.244;2023-05-18T11:07:58;3.60;;;2.53;;
10166;SDS011;62970;53.130;8.244;2023-05-18T11:10:33;5.23;;;2.53;;
10166;SDS011;62970;53.130;8.244;2023-05-18T11:13:09;5.30;;;2.60;;
10166;SDS011;62970;53.130;8.244;2023-05-18T11:18:35;2.90;;;2.63;;
10166;SDS011;62970;53.130;8.244;2023-05-18T11:21:20;4.03;;;2.50;;
10166;SDS011;62970;53.130;8.244;2023-05-18T11:24:12;3.57;;;2.80;;
10166;SDS011;62970;53.130;8.244;2023-05-18T11:26:46;4.67;;;2.70;;
10166;SDS011;62970;53.130;8.244;2023-05-18T11:29:23;3.80;;;2.63;;
10166;SDS011;62970;53.130;8.244;2023-05-18T11:31:59;5.80;;;2.90;;
10166;SDS011;62970;53.130;8.244;2023-05-18T11:43:18;4.50;;;2.63;;
10166;SDS011;62970;53.130;8.244;2023-05-18T11:45:55;3.37;;;2.67;;
10166;SDS011;62970;53.130;8.244;2023-05-18T11:48:25;2.40;;;2.20;;
10166;SDS011;62970;53.130;8.244;2023-05-18T11:50:56;5.87;;;2.90;;
10166;SDS011;62970;53.130;8.244;2023-05-18T11:53:26;5.87;;;2.80;;
10166;SDS011;62970;53.130;8.244;2023-05-18T11:55:58;5.37;;;2.60;;
10166;SDS011;62970;53.130;8.244;2023-05-18T11:58:28;5.40;;;2.97;;
10166;SDS011;62970;53.130;8.244;2023-05-18T12:01:01;4.60;;;2.80;;
10166;SDS011;62970;53.130;8.244;2023-05-18T12:03:35;4.40;;;3.20;;
10166;SDS011;62970;53.130;8.244;2023-05-18T12:06:06;5.67;;;2.83;;
10166;SDS011;62970;53.130;8.244;2023-05-18T12:08:36;5.90;;;2.83;;
10166;SDS011;62970;53.130;8.244;2023-05-18T12:11:08;3.40;;;2.60;;
10166;SDS011;62970;53.130;8.244;2023-05-18T12:13:39;6.03;;;2.87;;
10166;SDS011;62970;53.130;8.244;2023-05-18T12:16:12;3.37;;;2.60;;
10166;SDS011;62970;53.130;8.244;2023-05-18T12:18:47;5.77;;;2.93;;
10166;SDS011;62970;53.130;8.244;2023-05-18T12:21:20;3.53;;;2.67;;
10166;SDS011;62970;53.130;8.244;2023-05-18T12:23:56;4.13;;;2.73;;
10166;SDS011;62970;53.130;8.244;2023-05-18T12:26:26;5.50;;;2.60;;
10166;SDS011;62970;53.130;8.244;2023-05-18T12:28:56;5.87;;;2.90;;
10166;SDS011;62970;53.130;8.244;2023-05-18T12:31:30;4.13;;;2.57;;
10166;SDS011;62970;53.130;8.244;2023-05-18T12:34:00;4.83;;;2.50;;
10166;SDS011;62970;53.130;8.244;2023-05-18T12:36:30;5.20;;;2.60;;
10166;SDS011;62970;53.130;8.244;2023-05-18T12:38:59;6.00;;;2.97;;
10166;SDS011;62970;53.130;8.244;2023-05-18T12:41:29;4.40;;;2.50;;
10166;SDS011;62970;53.130;8.244;2023-05-18T12:43:58;3.13;;;2.20;;
10166;SDS011;62970;53.130;8.244;2023-05-18T12:46:31;5.20;;;2.53;;
10166;SDS011;62970;53.130;8.244;2023-05-18T12:49:01;3.83;;;2.70;;
10166;SDS011;62970;53.130;8.244;2023-05-18T12:51:31;4.23;;;2.60;;
10166;SDS011;62970;53.130;8.244;2023-05-18T12:54:01;5.13;;;2.83;;
10166;SDS011;62970;53.130;8.244;2023-05-18T12:59:26;3.07;;;2.40;;
10166;SDS011;62970;53.130;8.244;2023-05-18T13:01:58;5.47;;;2.67;;
10166;SDS011;62970;53.130;8.244;2023-05-18T13:04:33;5.40;;;2.47;;
10166;SDS011;62970;53.130;8.244;2023-05-18T13:07:02;4.47;;;2.70;;
10166;SDS011;62970;53.130;8.244;2023-05-18T13:09:43;4.80;;;2.93;;
10166;SDS011;62970;53.130;8.244;2023-05-18T13:12:15;3.20;;;2.47;;
10166;SDS011;62970;53.130;8.244;2023-05-18T13:14:45;7.23;;;2.43;;
10166;SDS011;62970;53.130;8.244;2023-05-18T13:17:22;5.10;;;2.67;;
10166;SDS011;62970;53.130;8.244;2023-05-18T13:19:55;3.27;;;2.43;;
10166;SDS011;62970;53.130;8.244;2023-05-18T13:22:25;3.40;;;2.67;;
10166;SDS011;62970;53.130;8.244;2023-05-18T13:24:54;4.43;;;2.97;;
10166;SDS011;62970;53.130;8.244;2023-05-18T13:27:23;4.97;;;2.80;;
10166;SDS011;62970;53.130;8.244;2023-05-18T13:29:52;5.73;;;2.53;;
10166;SDS011;62970;53.130;8.244;2023-05-18T13:32:26;4.33;;;3.00;;
10166;SDS011;62970;53.130;8.244;2023-05-18T13:34:55;4.20;;;2.57;;
10166;SDS011;62970;53.130;8.244;2023-05-18T13:37:24;3.50;;;2.60;;
10166;SDS011;62970;53.130;8.244;2023-05-18T13:39:53;4.00;;;2.50;;
10166;SDS011;62970;53.130;8.244;2023-05-18T13:42:23;5.10;;;2.43;;
10166;SDS011;62970;53.130;8.244;2023-05-18T13:44:52;3.40;;;2.40;;
10166;SDS011;62970;53.130;8.244;2023-05-18T13:47:21;5.80;;;2.73;;
10166;SDS011;62970;53.130;8.244;2023-05-18T13:49:53;6.33;;;2.80;;
10166;SDS011;62970;53.130;8.244;2023-05-18T13:52:22;5.20;;;2.90;;
10166;SDS011;62970;53.130;8.244;2023-05-18T13:54:52;4.03;;;2.30;;
10166;SDS011;62970;53.130;8.244;2023-05-18T13:57:21;2.60;;;2.40;;
10166;SDS011;62970;53.130;8.244;2023-05-18T13:59:50;5.27;;;2.83;;
10166;SDS011;62970;53.130;8.244;2023-05-18T14:02:22;3.43;;;2.33;;
10166;SDS011;62970;53.130;8.244;2023-05-18T14:04:55;2.90;;;2.30;;
10166;SDS011;62970;53.130;8.244;2023-05-18T14:07:24;4.63;;;2.37;;
10166;SDS011;62970;53.130;8.244;2023-05-18T14:09:54;3.23;;;2.63;;
10166;SDS011;62970;53.130;8.244;2023-05-18T14:12:23;4.53;;;3.00;;
10166;SDS011;62970;53.130;8.244;2023-05-18T14:14:52;5.23;;;2.73;;
10166;SDS011;62970;53.130;8.244;2023-05-18T14:17:22;5.57;;;2.90;;
10166;SDS011;62970;53.130;8.244;2023-05-18T14:19:56;6.27;;;2.70;;
10166;SDS011;62970;53.130;8.244;2023-05-18T14:22:29;4.20;;;2.30;;
10166;SDS011;62970;53.130;8.244;2023-05-18T14:24:58;5.30;;;2.23;;
10166;SDS011;62970;53.130;8.244;2023-05-18T14:27:28;4.27;;;2.20;;
10166;SDS011;62970;53.130;8.244;2023-05-18T14:29:58;5.37;;;2.10;;
10166;SDS011;62970;53.130;8.244;2023-05-18T14:32:27;4.13;;;2.27;;
10166;SDS011;62970;53.130;8.244;2023-05-18T14:34:59;4.90;;;2.73;;
10166;SDS011;62970;53.130;8.244;2023-05-18T14:37:29;3.30;;;2.60;;
10166;SDS011;62970;53.130;8.244;2023-05-18T14:39:59;2.37;;;2.17;;
10166;SDS011;62970;53.130;8.244;2023-05-18T14:42:29;3.87;;;2.50;;
10166;SDS011;62970;53.130;8.244;2023-05-18T14:45:01;4.20;;;2.37;;
10166;SDS011;62970;53.130;8.244;2023-05-18T14:47:31;3.10;;;2.67;;
10166;SDS011;62970;53.130;8.244;2023-05-18T14:50:03;4.13;;;2.60;;
10166;SDS011;62970;53.130;8.244;2023-05-18T14:52:34;4.43;;;2.90;;
10166;SDS011;62970;53.130;8.244;2023-05-18T14:55:04;5.60;;;2.30;;
10166;SDS011;62970;53.130;8.244;2023-05-18T14:57:34;6.10;;;2.50;;
10166;SDS011;62970;53.130;8.244;2023-05-18T15:00:04;3.17;;;2.10;;
10166;SDS011;62970;53.130;8.244;2023-05-18T15:02:35;3.93;;;2.37;;
10166;SDS011;62970;53.130;8.244;2023-05-18T15:05:26;4.37;;;2.50;;
10166;SDS011;62970;53.130;8.244;2023-05-18T15:07:56;6.97;;;2.53;;
10166;SDS011;62970;53.130;8.244;2023-05-18T15:10:25;4.20;;;2.50;;
10166;SDS011;62970;53.130;8.244;2023-05-18T15:12:55;3.33;;;2.20;;
10166;SDS011;62970;53.130;8.244;2023-05-18T15:15:24;4.70;;;2.73;;
10166;SDS011;62970;53.130;8.244;2023-05-18T15:17:54;4.63;;;2.63;;
10166;SDS011;62970;53.130;8.244;2023-05-18T15:20:23;5.57;;;2.47;;
10166;SDS011;62970;53.130;8.244;2023-05-18T15:22:57;6.27;;;2.40;;
10166;SDS011;62970;53.130;8.244;2023-05-18T15:25:27;3.57;;;2.53;;
10166;SDS011;62970;53.130;8.244;2023-05-18T15:27:57;3.40;;;2.40;;
10166;SDS011;62970;53.130;8.244;2023-05-18T15:30:27;4.20;;;2.30;;
10166;SDS011;62970;53.130;8.244;2023-05-18T15:32:57;5.43;;;2.40;;
10166;SDS011;62970;53.130;8.244;2023-05-18T15:35:29;5.27;;;2.60;;
10166;SDS011;62970;53.130;8.244;2023-05-18T15:38:00;3.40;;;2.37;;
10166;SDS011;62970;53.130;8.244;2023-05-18T15:40:33;5.23;;;2.60;;
10166;SDS011;62970;53.130;8.244;2023-05-18T15:43:03;4.07;;;2.53;;
10166;SDS011;62970;53.130;8.244;2023-05-18T15:45:36;3.93;;;2.57;;
10166;SDS011;62970;53.130;8.244;2023-05-18T15:48:05;4.87;;;2.83;;
10166;SDS011;62970;53.130;8.244;2023-05-18T15:50:37;4.63;;;2.67;;
10166;SDS011;62970;53.130;8.244;2023-05-18T15:53:06;4.97;;;2.50;;
10166;SDS011;62970;53.130;8.244;2023-05-18T15:55:38;4.87;;;2.70;;
10166;SDS011;62970;53.130;8.244;2023-05-18T15:58:10;4.87;;;2.37;;
10166;SDS011;62970;53.130;8.244;2023-05-18T16:00:43;5.70;;;2.67;;
10166;SDS011;62970;53.130;8.244;2023-05-18T16:03:12;7.03;;;2.87;;
10166;SDS011;62970;53.130;8.244;2023-05-18T16:05:46;3.80;;;2.20;;
10166;SDS011;62970;53.130;8.244;2023-05-18T16:08:18;6.47;;;2.40;;
10166;SDS011;62970;53.130;8.244;2023-05-18T16:10:50;3.60;;;2.10;;
10166;SDS011;62970;53.130;8.244;2023-05-18T16:13:19;5.40;;;2.67;;
10166;SDS011;62970;53.130;8.244;2023-05-18T16:15:51;3.50;;;2.40;;
10166;SDS011;62970;53.130;8.244;2023-05-18T16:18:22;2.97;;;2.07;;
10166;SDS011;62970;53.130;8.244;2023-05-18T16:20:58;4.30;;;2.60;;
10166;SDS011;62970;53.130;8.244;2023-05-18T16:23:32;4.10;;;2.67;;
10166;SDS011;62970;53.130;8.244;2023-05-18T16:26:04;4.07;;;2.07;;
10166;SDS011;62970;53.130;8.244;2023-05-18T16:28:35;5.27;;;2.40;;
10166;SDS011;62970;53.130;8.244;2023-05-18T16:31:09;3.83;;;2.37;;
10166;SDS011;62970;53.130;8.244;2023-05-18T16:33:39;6.07;;;2.30;;
10166;SDS011;62970;53.130;8.244;2023-05-18T16:36:13;2.57;;;2.00;;
10166;SDS011;62970;53.130;8.244;2023-05-18T16:38:42;2.53;;;2.27;;
10166;SDS011;62970;53.130;8.244;2023-05-18T16:41:13;4.60;;;2.30;;
10166;SDS011;62970;53.130;8.244;2023-05-18T16:43:43;5.33;;;2.27;;
10166;SDS011;62970;53.130;8.244;2023-05-18T16:46:13;3.23;;;2.00;;